createdAt,value
2022-12-13T00:01:54.363Z,-1.10
2022-12-13T00:04:26.324Z,-1.10
2022-12-13T00:06:56.381Z,-1.10
2022-12-13T00:09:23.860Z,-1.10
2022-12-13T00:11:51.282Z,-1.20
2022-12-13T00:14:18.516Z,-1.20
2022-12-13T00:16:48.098Z,-1.10
2022-12-13T00:19:16.216Z,-1.10
2022-12-13T00:21:44.189Z,-1.10
2022-12-13T00:24:11.651Z,-1.10
2022-12-13T00:26:39.167Z,-1.10
2022-12-13T00:29:07.852Z,-1.10
2022-12-13T00:34:24.312Z,-1.10
2022-12-13T00:36:53.211Z,-1.00
2022-12-13T00:39:20.451Z,-1.00
2022-12-13T00:41:47.679Z,-1.00
2022-12-13T00:44:15.571Z,-1.00
2022-12-13T00:46:43.249Z,-1.00
2022-12-13T00:49:15.106Z,-1.00
2022-12-13T00:51:42.305Z,-1.00
2022-12-13T00:54:10.405Z,-1.00
2022-12-13T00:56:38.969Z,-1.00
2022-12-13T00:59:06.248Z,-0.90
2022-12-13T01:01:36.710Z,-1.00
2022-12-13T01:04:06.435Z,-1.00
2022-12-13T01:06:37.789Z,-1.00
2022-12-13T01:09:08.990Z,-1.10
2022-12-13T01:11:36.399Z,-1.00
2022-12-13T01:14:03.897Z,-1.00
2022-12-13T01:16:31.556Z,-1.00
2022-12-13T01:19:00.932Z,-1.00
2022-12-13T01:21:29.802Z,-1.00
2022-12-13T01:24:05.268Z,-1.00
2022-12-13T01:26:33.228Z,-1.00
2022-12-13T01:29:01.165Z,-1.00
2022-12-13T01:31:28.986Z,-0.90
2022-12-13T01:33:56.659Z,-1.10
2022-12-13T01:36:27.318Z,-1.10
2022-12-13T01:38:58.403Z,-1.10
2022-12-13T01:41:28.558Z,-1.10
2022-12-13T01:44:03.780Z,-1.10
2022-12-13T01:46:34.055Z,-1.20
2022-12-13T01:49:19.733Z,-1.20
2022-12-13T01:52:19.883Z,-1.30
2022-12-13T01:54:52.921Z,-1.20
2022-12-13T01:57:21.948Z,-1.20
2022-12-13T01:59:50.943Z,-1.20
2022-12-13T02:02:18.615Z,-1.30
2022-12-13T02:04:50.225Z,-1.30
2022-12-13T02:07:23.438Z,-1.30
2022-12-13T02:09:56.698Z,-1.30
2022-12-13T02:12:30.804Z,-1.30
2022-12-13T02:15:08.071Z,-1.40
2022-12-13T02:18:13.278Z,-1.40
2022-12-13T02:20:46.507Z,-1.40
2022-12-13T02:23:28.676Z,-1.40
2022-12-13T02:26:13.895Z,-1.50
2022-12-13T02:29:30.746Z,-1.50
2022-12-13T02:32:13.173Z,-1.50
2022-12-13T02:40:47.743Z,-1.60
2022-12-13T02:43:17.248Z,-1.60
2022-12-13T02:45:52.871Z,-1.60
2022-12-13T02:54:14.246Z,-1.70
2022-12-13T02:56:42.310Z,-1.70
2022-12-13T02:59:15.329Z,-1.60
2022-12-13T03:02:21.617Z,-1.70
2022-12-13T03:05:29.992Z,-1.60
2022-12-13T03:14:07.566Z,-1.70
2022-12-13T03:16:38.023Z,-1.70
2022-12-13T03:19:09.041Z,-1.70
2022-12-13T03:24:24.730Z,-1.60
2022-12-13T03:26:53.216Z,-1.80
2022-12-13T03:29:23.383Z,-1.70
2022-12-13T03:31:53.391Z,-1.70
2022-12-13T03:34:22.339Z,-1.70
2022-12-13T03:36:50.513Z,-1.70
2022-12-13T03:39:18.091Z,-1.70
2022-12-13T03:41:45.220Z,-1.70
2022-12-13T03:44:12.576Z,-1.70
2022-12-13T03:46:39.602Z,-1.70
2022-12-13T03:49:06.571Z,-1.50
2022-12-13T03:51:34.004Z,-1.80
2022-12-13T03:54:01.173Z,-1.80
2022-12-13T03:56:28.115Z,-1.80
2022-12-13T03:58:55.367Z,-1.80
2022-12-13T04:01:23.666Z,-1.90
2022-12-13T04:03:50.859Z,-1.90
2022-12-13T04:06:22.785Z,-1.90
2022-12-13T04:08:52.379Z,-1.70
2022-12-13T04:11:42.694Z,-1.90
2022-12-13T04:14:12.166Z,-1.90
2022-12-13T04:16:39.810Z,-2.00
2022-12-13T04:19:06.840Z,-2.00
2022-12-13T04:21:34.157Z,-2.00
2022-12-13T04:24:01.564Z,-2.00
2022-12-13T04:26:29.294Z,-2.00
2022-12-13T04:28:56.735Z,-2.00
2022-12-13T04:31:24.064Z,-2.00
2022-12-13T04:33:51.621Z,-2.00
2022-12-13T04:36:31.107Z,-2.00
2022-12-13T04:39:22.481Z,-2.00
2022-12-13T04:41:52.522Z,-2.10
2022-12-13T04:44:28.829Z,-2.10
2022-12-13T04:47:01.097Z,-2.10
2022-12-13T04:49:32.262Z,-2.10
2022-12-13T04:52:01.718Z,-2.20
2022-12-13T04:54:36.369Z,-2.10
2022-12-13T04:57:06.803Z,-2.10
2022-12-13T04:59:34.054Z,-2.10
2022-12-13T05:02:01.430Z,-2.20
2022-12-13T05:04:32.670Z,-2.30
2022-12-13T05:07:01.120Z,-2.30
2022-12-13T05:09:30.863Z,-2.30
2022-12-13T05:12:01.222Z,-2.30
2022-12-13T05:14:32.763Z,-2.30
2022-12-13T05:17:02.105Z,-2.20
2022-12-13T05:19:30.998Z,-2.30
2022-12-13T05:22:01.267Z,-2.30
2022-12-13T05:24:32.377Z,-2.40
2022-12-13T05:27:00.080Z,-2.40
2022-12-13T05:29:28.284Z,-2.40
2022-12-13T05:31:55.547Z,-2.40
2022-12-13T05:34:22.751Z,-2.40
2022-12-13T05:36:49.847Z,-2.40
2022-12-13T05:39:29.080Z,-2.40
2022-12-13T05:42:01.908Z,-2.40
2022-12-13T05:44:31.806Z,-2.50
2022-12-13T05:47:02.014Z,-2.40
2022-12-13T05:49:30.987Z,-2.40
2022-12-13T05:51:58.258Z,-2.40
2022-12-13T05:54:25.262Z,-2.40
2022-12-13T05:56:52.357Z,-2.30
2022-12-13T05:59:19.527Z,-2.30
2022-12-13T06:01:46.604Z,-2.40
2022-12-13T06:04:22.496Z,-2.40
2022-12-13T06:06:52.695Z,-2.40
2022-12-13T06:09:21.327Z,-2.40
2022-12-13T06:11:50.556Z,-2.50
2022-12-13T06:14:22.532Z,-2.50
2022-12-13T06:16:53.682Z,-2.40
2022-12-13T06:19:22.003Z,-2.50
2022-12-13T06:21:50.579Z,-2.50
2022-12-13T06:24:21.658Z,-2.50
2022-12-13T06:26:51.982Z,-2.50
2022-12-13T06:29:24.616Z,-2.60
2022-12-13T06:32:02.500Z,-2.60
2022-12-13T06:34:33.195Z,-2.50
2022-12-13T06:37:02.698Z,-2.60
2022-12-13T06:39:32.344Z,-2.60
2022-12-13T06:42:06.202Z,-2.60
2022-12-13T06:44:34.207Z,-2.70
2022-12-13T06:47:10.254Z,-2.60
2022-12-13T06:49:41.178Z,-2.60
2022-12-13T06:52:12.687Z,-2.60
2022-12-13T06:54:40.926Z,-2.60
2022-12-13T06:57:08.173Z,-2.60
2022-12-13T06:59:37.287Z,-2.60
2022-12-13T07:02:05.765Z,-2.70
2022-12-13T07:04:33.783Z,-2.60
2022-12-13T07:07:01.984Z,-2.70
2022-12-13T07:09:31.260Z,-2.70
2022-12-13T07:11:59.361Z,-2.70
2022-12-13T07:14:26.643Z,-2.70
2022-12-13T07:16:59.448Z,-2.70
2022-12-13T07:19:35.413Z,-2.70
2022-12-13T07:22:06.222Z,-2.70
2022-12-13T07:24:35.159Z,-2.70
2022-12-13T07:27:04.648Z,-2.70
2022-12-13T07:29:31.731Z,-2.80
2022-12-13T07:32:01.834Z,-2.80
2022-12-13T07:34:30.991Z,-2.80
2022-12-13T07:36:58.123Z,-2.80
2022-12-13T07:39:26.454Z,-2.80
2022-12-13T07:41:56.015Z,-2.70
2022-12-13T07:44:24.391Z,-2.80
2022-12-13T07:46:51.517Z,-2.80
2022-12-13T07:49:18.895Z,-2.80
2022-12-13T07:51:47.747Z,-2.80
2022-12-13T07:54:14.758Z,-2.80
2022-12-13T07:56:42.226Z,-2.70
2022-12-13T07:59:11.407Z,-2.70
2022-12-13T08:01:38.642Z,-2.70
2022-12-13T08:04:06.099Z,-2.60
2022-12-13T08:06:37.639Z,-2.60
2022-12-13T08:09:06.123Z,-2.50
2022-12-13T08:11:35.488Z,-2.50
2022-12-13T08:14:02.652Z,-2.50
2022-12-13T08:16:30.220Z,-2.20
2022-12-13T08:19:01.028Z,-2.40
2022-12-13T08:24:29.051Z,-2.30
2022-12-13T08:27:02.931Z,-2.20
2022-12-13T08:29:34.119Z,-2.10
2022-12-13T08:32:11.050Z,-2.00
2022-12-13T08:34:38.750Z,-1.90
2022-12-13T08:37:06.031Z,-1.90
2022-12-13T08:39:36.539Z,-1.80
2022-12-13T08:42:15.433Z,-1.60
2022-12-13T08:44:53.052Z,-1.60
2022-12-13T08:47:23.396Z,-1.60
2022-12-13T08:49:55.424Z,-1.50
2022-12-13T08:52:23.789Z,-1.50
2022-12-13T08:54:51.312Z,-1.40
2022-12-13T08:57:18.724Z,-1.40
2022-12-13T08:59:46.401Z,-1.30
2022-12-13T09:02:17.405Z,-1.20
2022-12-13T09:04:44.465Z,-1.10
2022-12-13T09:07:12.688Z,-1.00
2022-12-13T09:09:39.787Z,-1.10
2022-12-13T09:12:11.101Z,-1.10
2022-12-13T09:15:01.206Z,-1.10
2022-12-13T09:17:36.721Z,-1.00
2022-12-13T09:20:10.062Z,-1.10
2022-12-13T09:23:02.101Z,-0.90
2022-12-13T09:25:36.962Z,-0.80
2022-12-13T09:28:07.014Z,-0.60
2022-12-13T09:30:34.951Z,-0.40
2022-12-13T09:33:18.268Z,-0.20
2022-12-13T09:35:49.319Z,-0.30
2022-12-13T09:38:16.282Z,-0.30
2022-12-13T09:40:45.680Z,-0.20
2022-12-13T09:43:43.696Z,-0.20
2022-12-13T09:46:23.709Z,-0.40
2022-12-13T09:49:01.764Z,-0.30
2022-12-13T09:51:43.616Z,-0.20
2022-12-13T09:54:19.592Z,-0.10
2022-12-13T09:56:51.444Z,0.00
2022-12-13T09:59:21.537Z,0.10
2022-12-13T10:01:49.186Z,0.20
2022-12-13T10:04:19.488Z,0.20
2022-12-13T10:06:46.754Z,0.20
2022-12-13T10:09:14.562Z,0.20
2022-12-13T10:11:51.688Z,0.20
2022-12-13T10:14:32.057Z,0.20
2022-12-13T10:17:04.624Z,0.20
2022-12-13T10:19:40.382Z,0.20
2022-12-13T10:22:16.487Z,0.30
2022-12-13T10:24:56.786Z,0.30
2022-12-13T10:27:36.735Z,0.30
2022-12-13T10:30:28.770Z,0.30
2022-12-13T10:33:04.979Z,0.40
2022-12-13T10:35:34.752Z,0.40
2022-12-13T10:38:31.663Z,0.40
2022-12-13T10:41:01.198Z,0.50
2022-12-13T10:43:30.600Z,0.70
2022-12-13T10:45:57.892Z,0.70
2022-12-13T10:48:38.634Z,0.90
2022-12-13T10:51:13.921Z,0.80
2022-12-13T10:53:47.313Z,0.80
2022-12-13T10:56:22.805Z,0.90
2022-12-13T10:59:21.586Z,0.90
2022-12-13T11:01:48.651Z,1.00
2022-12-13T11:04:27.930Z,1.10
2022-12-13T11:06:57.542Z,1.20
2022-12-13T11:09:38.865Z,1.30
2022-12-13T11:12:18.664Z,1.30
2022-12-13T11:15:06.902Z,1.20
2022-12-13T11:17:46.828Z,1.20
2022-12-13T11:20:23.923Z,1.30
2022-12-13T11:22:59.664Z,1.30
2022-12-13T11:25:33.841Z,1.40
2022-12-13T11:28:34.424Z,1.40
2022-12-13T11:31:36.706Z,1.50
2022-12-13T11:34:48.031Z,1.50
2022-12-13T11:37:29.023Z,1.50
2022-12-13T11:40:04.998Z,1.50
2022-12-13T11:42:52.456Z,1.60
2022-12-13T11:45:23.639Z,1.70
2022-12-13T11:48:06.994Z,1.80
2022-12-13T11:50:42.816Z,1.90
2022-12-13T11:53:33.733Z,2.10
2022-12-13T11:56:44.708Z,2.20
2022-12-13T11:59:39.746Z,2.40
2022-12-13T12:02:33.627Z,2.60
2022-12-13T12:05:05.743Z,2.70
2022-12-13T12:07:58.421Z,2.70
2022-12-13T12:10:49.056Z,2.90
2022-12-13T12:13:33.512Z,3.00
2022-12-13T12:16:06.677Z,3.00
2022-12-13T12:18:34.036Z,3.10
2022-12-13T12:21:09.115Z,3.20
2022-12-13T12:24:00.743Z,3.40
2022-12-13T12:26:43.435Z,3.50
2022-12-13T12:29:18.052Z,3.60
2022-12-13T12:32:11.063Z,3.60
2022-12-13T12:34:57.433Z,3.60
2022-12-13T12:37:37.926Z,3.70
2022-12-13T12:41:14.150Z,3.70
2022-12-13T12:43:38.840Z,3.70
2022-12-13T12:47:08.843Z,3.60
2022-12-13T12:50:09.285Z,3.80
2022-12-13T12:53:11.219Z,3.80
2022-12-13T12:56:02.655Z,3.90
2022-12-13T12:58:41.676Z,4.00
2022-12-13T13:01:33.443Z,4.10
2022-12-13T13:04:08.357Z,3.90
2022-12-13T13:07:01.510Z,3.90
2022-12-13T13:09:30.224Z,3.90
2022-12-13T13:11:58.191Z,3.90
2022-12-13T13:14:35.455Z,3.80
2022-12-13T13:17:17.374Z,3.80
2022-12-13T13:20:40.802Z,3.80
2022-12-13T13:23:40.621Z,3.70
2022-12-13T13:26:26.039Z,3.60
2022-12-13T13:29:15.685Z,3.50
2022-12-13T13:32:28.433Z,3.60
2022-12-13T13:35:35.805Z,3.60
2022-12-13T13:38:27.670Z,3.70
2022-12-13T13:40:55.250Z,3.80
2022-12-13T13:43:32.921Z,3.80
2022-12-13T13:46:03.474Z,3.80
2022-12-13T13:48:58.115Z,3.90
2022-12-13T13:52:25.066Z,3.90
2022-12-13T13:55:24.764Z,3.80
2022-12-13T13:58:10.201Z,3.60
2022-12-13T14:01:14.135Z,3.50
2022-12-13T14:04:10.265Z,3.40
2022-12-13T14:06:49.380Z,3.20
2022-12-13T14:09:45.967Z,3.10
2022-12-13T14:37:37.992Z,2.90
2022-12-13T14:40:44.486Z,2.90
2022-12-13T14:46:08.184Z,2.80
2022-12-13T14:48:50.737Z,2.80
2022-12-13T14:51:37.176Z,2.80
2022-12-13T14:54:07.204Z,2.80
2022-12-13T14:56:34.725Z,2.70
2022-12-13T14:59:05.331Z,2.70
2022-12-13T15:01:37.472Z,2.60
2022-12-13T15:04:24.192Z,2.60
2022-12-13T15:07:06.953Z,2.50
2022-12-13T15:09:39.515Z,2.40
2022-12-13T15:12:25.141Z,2.30
2022-12-13T15:15:24.774Z,2.30
2022-12-13T15:18:17.298Z,2.10
2022-12-13T15:20:47.695Z,2.10
2022-12-13T15:23:22.219Z,2.00
2022-12-13T15:26:01.417Z,1.90
2022-12-13T15:28:34.905Z,1.80
2022-12-13T15:31:04.581Z,1.80
2022-12-13T15:33:35.562Z,1.70
2022-12-13T15:36:11.171Z,1.60
2022-12-13T15:38:41.351Z,1.60
2022-12-13T15:41:19.862Z,1.50
2022-12-13T15:43:56.609Z,1.70
2022-12-13T15:46:32.100Z,1.60
2022-12-13T15:49:02.439Z,1.50
2022-12-13T15:51:30.763Z,1.50
2022-12-13T15:54:02.562Z,1.40
2022-12-13T15:56:32.732Z,1.40
2022-12-13T15:59:02.223Z,1.40
2022-12-13T16:01:35.243Z,1.40
2022-12-13T16:04:05.114Z,1.40
2022-12-13T16:06:33.910Z,1.40
2022-12-13T16:09:04.608Z,1.40
2022-12-13T16:11:59.553Z,1.30
2022-12-13T16:14:31.908Z,1.30
2022-12-13T16:17:25.082Z,1.20
2022-12-13T16:19:54.189Z,1.20
2022-12-13T16:22:24.139Z,1.20
2022-12-13T16:24:52.674Z,1.10
2022-12-13T16:27:20.220Z,1.20
2022-12-13T16:29:47.134Z,1.30
2022-12-13T16:32:14.631Z,1.30
2022-12-13T16:34:41.660Z,1.20
2022-12-13T16:37:26.705Z,1.20
2022-12-13T16:39:55.555Z,1.20
2022-12-13T16:42:26.496Z,1.20
2022-12-13T16:45:17.773Z,1.20
2022-12-13T16:47:48.494Z,1.20
2022-12-13T16:50:18.757Z,1.20
2022-12-13T16:52:46.276Z,1.20
2022-12-13T16:55:13.417Z,1.10
2022-12-13T16:57:40.568Z,1.20
2022-12-13T17:00:10.035Z,1.10
2022-12-13T17:02:37.637Z,1.10
2022-12-13T17:05:06.116Z,1.30
2022-12-13T17:07:35.681Z,1.20
2022-12-13T17:10:03.613Z,1.10
2022-12-13T17:12:30.891Z,1.20
2022-12-13T17:14:58.358Z,1.20
2022-12-13T17:17:25.631Z,1.20
2022-12-13T17:19:54.238Z,1.30
2022-12-13T17:22:21.580Z,1.20
2022-12-13T17:24:48.727Z,1.20
2022-12-13T17:27:16.178Z,1.30
2022-12-13T17:29:43.186Z,1.30
2022-12-13T17:32:10.102Z,1.30
2022-12-13T17:34:37.214Z,1.20
2022-12-13T17:37:10.025Z,1.20
2022-12-13T17:39:37.458Z,1.20
2022-12-13T17:42:04.955Z,1.40
2022-12-13T17:44:32.021Z,1.30
2022-12-13T17:46:59.249Z,1.30
2022-12-13T17:49:27.777Z,1.20
2022-12-13T17:51:55.236Z,1.20
2022-12-13T17:54:23.963Z,1.40
2022-12-13T17:56:51.950Z,1.20
2022-12-13T17:59:20.460Z,1.20
2022-12-13T18:01:48.583Z,1.20
2022-12-13T18:04:15.972Z,1.10
2022-12-13T18:06:43.249Z,1.10
2022-12-13T18:09:12.490Z,1.20
2022-12-13T18:11:40.141Z,1.20
2022-12-13T18:14:08.909Z,1.20
2022-12-13T18:16:38.233Z,1.20
2022-12-13T18:19:07.497Z,1.10
2022-12-13T18:21:37.312Z,1.10
2022-12-13T18:24:09.570Z,1.10
2022-12-13T18:26:36.585Z,1.10
2022-12-13T18:29:04.649Z,1.10
2022-12-13T18:31:32.284Z,1.10
2022-12-13T18:33:59.874Z,1.00
2022-12-13T18:36:27.138Z,1.10
2022-12-13T18:38:54.335Z,1.10
2022-12-13T18:41:24.670Z,1.10
2022-12-13T18:44:04.131Z,1.10
2022-12-13T18:46:35.199Z,1.00
2022-12-13T18:49:03.018Z,1.00
2022-12-13T18:51:30.134Z,1.20
2022-12-13T18:53:57.491Z,1.00
2022-12-13T18:56:25.019Z,1.00
2022-12-13T18:58:52.652Z,0.90
2022-12-13T19:01:21.253Z,0.90
2022-12-13T19:03:49.393Z,0.90
2022-12-13T19:06:20.293Z,0.90
2022-12-13T19:08:49.371Z,0.90
2022-12-13T19:11:16.587Z,1.00
2022-12-13T19:13:43.841Z,1.00
2022-12-13T19:16:14.476Z,1.00
2022-12-13T19:18:42.487Z,1.00
2022-12-13T19:21:12.625Z,1.00
2022-12-13T19:23:40.875Z,1.00
2022-12-13T19:26:13.366Z,1.00
2022-12-13T19:28:41.679Z,1.00
2022-12-13T19:31:11.148Z,1.00
2022-12-13T19:33:38.459Z,1.00
2022-12-13T19:36:06.841Z,1.00
2022-12-13T19:38:34.502Z,0.90
2022-12-13T19:41:09.664Z,0.90
2022-12-13T19:43:36.896Z,0.90
2022-12-13T19:46:04.462Z,0.90
2022-12-13T19:48:32.406Z,0.90
2022-12-13T19:51:05.387Z,0.90
2022-12-13T19:53:32.762Z,0.80
2022-12-13T19:56:01.178Z,0.80
2022-12-13T19:58:28.710Z,0.70
2022-12-13T20:01:02.767Z,0.70
2022-12-13T20:03:38.233Z,0.70
2022-12-13T20:06:07.071Z,0.70
2022-12-13T20:08:34.733Z,0.70
2022-12-13T20:11:13.854Z,0.60
2022-12-13T20:13:41.486Z,0.60
2022-12-13T20:16:15.216Z,0.60
2022-12-13T20:18:42.287Z,0.60
2022-12-13T20:21:12.649Z,0.50
2022-12-13T20:23:42.260Z,0.50
2022-12-13T20:26:21.880Z,0.50
2022-12-13T20:28:50.407Z,0.50
2022-12-13T20:31:23.712Z,0.60
2022-12-13T20:33:56.295Z,0.60
2022-12-13T20:36:27.912Z,0.60
2022-12-13T20:38:57.198Z,0.70
2022-12-13T20:41:27.556Z,0.50
2022-12-13T20:43:56.347Z,0.60
2022-12-13T20:46:24.554Z,0.60
2022-12-13T20:48:52.543Z,0.60
2022-12-13T20:51:22.716Z,0.50
2022-12-13T20:53:51.694Z,0.50
2022-12-13T20:56:21.355Z,0.40
2022-12-13T20:58:48.709Z,0.40
2022-12-13T21:01:20.456Z,0.50
2022-12-13T21:03:48.038Z,0.50
2022-12-13T21:06:15.322Z,0.50
2022-12-13T21:08:51.167Z,0.40
2022-12-13T21:11:30.372Z,0.40
2022-12-13T21:14:10.958Z,0.40
2022-12-13T21:16:43.696Z,0.40
2022-12-13T21:19:14.352Z,0.40
2022-12-13T21:21:41.503Z,0.40
2022-12-13T21:24:09.323Z,0.40
2022-12-13T21:26:36.768Z,0.50
2022-12-13T21:29:06.789Z,0.50
2022-12-13T21:31:36.128Z,0.50
2022-12-13T21:34:04.070Z,0.50
2022-12-13T21:36:36.369Z,0.50
2022-12-13T21:39:08.484Z,0.50
2022-12-13T21:41:35.514Z,0.50
2022-12-13T21:44:02.829Z,0.50
2022-12-13T21:46:47.789Z,0.30
2022-12-13T21:49:17.559Z,0.50
2022-12-13T21:51:47.793Z,0.40
2022-12-13T21:54:17.604Z,0.40
2022-12-13T21:57:03.090Z,0.40
2022-12-13T21:59:30.950Z,0.40
2022-12-13T22:02:13.298Z,0.40
2022-12-13T22:04:53.624Z,0.40
2022-12-13T22:07:26.141Z,0.40
2022-12-13T22:09:54.530Z,0.40
2022-12-13T22:12:32.108Z,0.40
2022-12-13T22:14:59.565Z,0.40
2022-12-13T22:17:34.763Z,0.40
2022-12-13T22:20:05.740Z,0.40
2022-12-13T22:22:33.176Z,0.40
2022-12-13T22:25:00.686Z,0.40
2022-12-13T22:27:27.886Z,0.40
2022-12-13T22:29:57.395Z,0.40
2022-12-13T22:32:30.435Z,0.40
2022-12-13T22:34:57.449Z,0.40
2022-12-13T22:37:25.031Z,0.40
2022-12-13T22:39:52.066Z,0.40
2022-12-13T22:42:19.843Z,0.40
2022-12-13T22:44:47.093Z,0.50
2022-12-13T22:47:14.203Z,0.50
2022-12-13T22:49:41.431Z,0.40
2022-12-13T22:52:09.170Z,0.40
2022-12-13T22:54:36.378Z,0.40
2022-12-13T22:57:04.164Z,0.30
2022-12-13T22:59:31.396Z,0.30
2022-12-13T23:02:02.761Z,0.30
2022-12-13T23:04:32.997Z,0.30
2022-12-13T23:07:00.202Z,0.40
2022-12-13T23:09:27.658Z,0.30
2022-12-13T23:12:13.217Z,0.40
2022-12-13T23:14:40.452Z,0.30
2022-12-13T23:17:07.662Z,0.30
2022-12-13T23:19:49.379Z,0.20
2022-12-13T23:22:23.402Z,0.20
2022-12-13T23:24:51.890Z,0.20
2022-12-13T23:27:21.456Z,0.20
2022-12-13T23:29:48.536Z,0.20
2022-12-13T23:32:15.852Z,0.20
2022-12-13T23:34:43.160Z,0.10
2022-12-13T23:37:10.243Z,0.20
2022-12-13T23:39:37.214Z,0.10
2022-12-13T23:42:04.186Z,0.10
2022-12-13T23:44:31.359Z,0.10
2022-12-13T23:46:58.349Z,0.20
2022-12-13T23:49:25.350Z,0.10
2022-12-13T23:51:52.310Z,0.10
2022-12-13T23:54:20.530Z,0.20
2022-12-13T23:56:48.586Z,0.30
2022-12-13T23:59:16.664Z,0.10
